Airfield :
LOGIN :

Register | Disclaimer

   EN    FR    IT 

 










Legend :    VFR   Marginal VFR   IFR   Intensive IFR   Very Intensive IFR
Visi :
Ceiling :
>= 8 km
>= 3000ft
5 to 8 km
1000 to 3000 ft
1500m to 5 km
500 to 1000 ft
800 to 1500m
200 to 500 ft
< 800m
< 200 ft
Symbols :   Thunderstorms  Fog  Heavy snow  Heavy precipitations  Wind > 20 kt
SIGMETs :     Misc.  Thunderstorms  Icing  Turbulence  Mountain Waves  Volcanic Ashes






- Airport Elevation : 1260 ft
- IATA code : LDE


LFBT - Tarbes / Ossun

CURRENT METAR :
  • 172200Z AUTO 20006KT CAVOK 02/00 Q1032 NOSIG

EXPIRED METARs :
  • 172130Z AUTO 22005KT 180V240 CAVOK 03/01 Q1033 NOSIG
  • 172100Z AUTO 23006KT 9999 FEW084 03/02 Q1033 NOSIG
  • 172030Z AUTO 22005KT 9999 FEW064 04/01 Q1033 NOSIG
  • 172000Z AUTO 24008KT 9999 FEW036 SCT044 BKN054 06/03 Q1033 TEMPO 25015G25KT 4000 SHRA BKN020TCU
  • 171930Z AUTO 23006KT 9999 SCT032/// SCT042/// BKN094/// ///TCU 06/03 Q1033 TEMPO 25015G25KT 4000 SHRA BECMG NSC
  • 171900Z AUTO 25010KT 210V290 9999 RA FEW014/// BKN027/// BKN037/// ///TCU 07/04 Q1032 TEMPO 25015G25KT 4000 SHRA

TAF TAF LFBT
Valid from the 17 at 18:00 until the 18 at 18:00 UTC


171700Z 1718/1818 25010KT 9999 BKN030
PROB30
TEMPO 1718/1721 25015G25KT 4000 SHRA BKN020TCU
BECMG 1721/1723 18005KT CAVOK
BECMG 1810/1812 10010KT
BECMG 1815/1817 4000 RA OVC050



MET'MAP, your aeronautical weather chart ! - Copyright ORBIFLY December 2007 - Disclaimer

ORBIFLY MET'MAP TEAM :

Programming & Development : Alexandra Zaïnal
Concept & original design : Baudouin d'Aumeries
Assistance for programming : Marc-Olivier Méhu
Technical & hardware support : Manuel Goepfert

Contact : metmap@orbifly.com




SOURCES & CREDITS :

   NOAA